Main page
METAR-TAF:

METAR-TAF

Airports :

Lee's Summit Municipal Airport

Lee's Summit, Missouri, United States

latitude: 38-57-35N, longitude: 094-22-18W, elevation: 1004 ft

Current weather observation

The report was made 40 minutes ago, at 23:30 UTC
Wind 3 mph from variable directions
Temperature 75°F
Humidity 94%
Pressure 30.18 in. Hg
Visibility: 10 miles
Scattered clouds at a height of 800 ft
Broken clouds at a height of 7000 ft
Overcast at a height of 10000 ft

METAR: KLXT 192330Z AUTO VRB03KT 10SM SCT008 BKN070 OVC100 24/23 A3018 RMK AO2 RAB2258E22 TSE02 P0002 T02390228

Time: 19:10 (00:10 UTC)


TAF: missing

Weather observations and forecasts of more than 4000 airports (METAR and TAF reports).

The available stations are represented by yellow and red dots on the map.

Hover mouse over dot to see the name of the station.

Then click to see weather observations and forecasts.

To change the map : click on the green buttons with a black cross to zoom in, on the green button with a dash to zoom out, or on the green arrows for adjacent maps.


METAR-TAF: